Olympic National Park, WA

6:49 PM PST on December 27, 2014 (GMT -0800)
Whidbey Island Naval Air Station | Change Station
CLOSE
Current Station
Airport
Location: Whidbey Island,
Elevation: 46 ft
Nearby Weather Stations

Elev 46 ft 48.35 °N, 122.66 °W | Updated 53 minutes ago

Overcast
Overcast
50 °F
Feels Like 50 °F
N
26
Wind Variable Wind from West
Gusts 33 mph

Today
High -- | Low -- °F
--% Chance of Precip.
Yesterday
High -- | Low -- °F
Precip. -- in
8:03 AM 4:27 PM
Waxing Crescent, 42% visible
Pressure 30.04 in
Visibility 10.0 miles
Clouds Scattered Clouds 2800 ft
Mostly Cloudy 3600 ft
Mostly Cloudy 8000 ft
Dew Point 40 °F
Humidity 68%
Rainfall 0.16 in
Snow Depth Not available.
UV 0 out of 12
Pollen .50 out of 12
Air Quality Not available.
Flu Activity Not available.
METAR KNUW 280156Z 26023G29KT 10SM SCT028 BKN036 BKN080 10/04 A3002 RMK AO2 PK WND 26029/0153 RAB26E37 SLP170 P0000 T01000044 VISNO E $

More Conditions Fewer Conditions

Pressure 30.04 in
Visibility 10.0 miles
Clouds Scattered Clouds 2800 ft
Mostly Cloudy 3600 ft
Mostly Cloudy 8000 ft
Dew Point 40 °F
Humidity 68%
Rainfall 0.16 in
Snow Depth Not available.
UV 0 out of 12
Pollen .50 out of 12
Air Quality Not available.
Flu Activity Not available.
METAR KNUW 280156Z 26023G29KT 10SM SCT028 BKN036 BKN080 10/04 A3002 RMK AO2 PK WND 26029/0153 RAB26E37 SLP170 P0000 T01000044 VISNO E $

More Conditions Fewer Conditions

10-Day Weather Forecast

Almanac

Astronomy

Dec. 27, 2014 Rise Set
Actual Time
Civil Twilight
Nautical Twilight
Astronomical Twilight
Moon
Length of Visible Light
Length of Day
Tomorrow will be .
, % of the Moon is Illuminated

Today's Extremes

State Highs State Lows

Community

WunderPhotos

Upload Photos

1,781,144 photos uploaded!

WunderBlogs® & News

Nearby

Air Quality

  Air Quality AQ Index Pollutant
Not available.

Snow Depth

Station Depth Elevation

Earthquake Activity

City Distance Mag. Time & Date
Minimum magnitude displayed is 2.5.

Coastal Water Temperatures

Place Temperature

Nearby Weather Stations